sensor_id;sensor_type;location;lat;lon;timestamp;pressure;altitude;pressure_sealevel;temperature;humidity
67109;BME280;54027;50.786;7.058;2023-01-28T00:00:31;102252.50;;;3.73;79.12
67109;BME280;54027;50.786;7.058;2023-01-28T00:02:57;102255.72;;;3.69;79.22
67109;BME280;54027;50.786;7.058;2023-01-28T00:05:22;102261.78;;;3.71;78.75
67109;BME280;54027;50.786;7.058;2023-01-28T00:07:51;102253.97;;;3.68;78.55
67109;BME280;54027;50.786;7.058;2023-01-28T00:10:16;102254.72;;;3.65;78.17
67109;BME280;54027;50.786;7.058;2023-01-28T00:12:42;102256.34;;;3.63;78.77
67109;BME280;54027;50.786;7.058;2023-01-28T00:15:08;102253.75;;;3.62;78.84
67109;BME280;54027;50.786;7.058;2023-01-28T00:17:35;102253.53;;;3.57;79.31
67109;BME280;54027;50.786;7.058;2023-01-28T00:20:04;102255.94;;;3.54;79.23
67109;BME280;54027;50.786;7.058;2023-01-28T00:22:30;102258.38;;;3.51;79.09
67109;BME280;54027;50.786;7.058;2023-01-28T00:24:56;102265.28;;;3.53;79.57
67109;BME280;54027;50.786;7.058;2023-01-28T00:27:21;102248.00;;;3.48;79.57
67109;BME280;54027;50.786;7.058;2023-01-28T00:29:47;102252.25;;;3.47;79.58
67109;BME280;54027;50.786;7.058;2023-01-28T00:32:13;102249.53;;;3.44;79.26
67109;BME280;54027;50.786;7.058;2023-01-28T00:34:38;102248.66;;;3.44;79.14
67109;BME280;54027;50.786;7.058;2023-01-28T00:37:03;102240.19;;;3.45;79.24
67109;BME280;54027;50.786;7.058;2023-01-28T00:39:29;102243.56;;;3.44;79.39
67109;BME280;54027;50.786;7.058;2023-01-28T00:41:54;102250.38;;;3.43;79.72
67109;BME280;54027;50.786;7.058;2023-01-28T00:44:20;102245.19;;;3.42;78.93
67109;BME280;54027;50.786;7.058;2023-01-28T00:46:46;102250.44;;;3.45;78.87
67109;BME280;54027;50.786;7.058;2023-01-28T00:49:11;102247.88;;;3.45;78.33
67109;BME280;54027;50.786;7.058;2023-01-28T00:51:36;102257.91;;;3.40;79.65
67109;BME280;54027;50.786;7.058;2023-01-28T00:54:02;102255.25;;;3.39;79.21
67109;BME280;54027;50.786;7.058;2023-01-28T00:56:28;102253.59;;;3.39;79.78
67109;BME280;54027;50.786;7.058;2023-01-28T00:58:53;102260.19;;;3.34;79.41
67109;BME280;54027;50.786;7.058;2023-01-28T01:01:24;102260.06;;;3.31;79.95
67109;BME280;54027;50.786;7.058;2023-01-28T01:03:50;102255.81;;;3.32;79.96
67109;BME280;54027;50.786;7.058;2023-01-28T01:06:23;102258.16;;;3.27;80.01
67109;BME280;54027;50.786;7.058;2023-01-28T01:08:49;102263.66;;;3.17;79.97
67109;BME280;54027;50.786;7.058;2023-01-28T01:11:15;102265.88;;;3.10;80.70
67109;BME280;54027;50.786;7.058;2023-01-28T01:13:41;102257.63;;;2.97;81.22
67109;BME280;54027;50.786;7.058;2023-01-28T01:16:11;102264.81;;;2.87;81.30
67109;BME280;54027;50.786;7.058;2023-01-28T01:18:38;102257.75;;;2.81;81.95
67109;BME280;54027;50.786;7.058;2023-01-28T01:21:09;102258.84;;;2.69;82.33
67109;BME280;54027;50.786;7.058;2023-01-28T01:23:34;102263.44;;;2.58;82.58
67109;BME280;54027;50.786;7.058;2023-01-28T01:26:00;102264.75;;;2.50;82.92
67109;BME280;54027;50.786;7.058;2023-01-28T01:28:26;102263.66;;;2.45;83.29
67109;BME280;54027;50.786;7.058;2023-01-28T01:31:04;102253.81;;;2.35;83.31
67109;BME280;54027;50.786;7.058;2023-01-28T01:33:31;102260.13;;;2.25;83.77
67109;BME280;54027;50.786;7.058;2023-01-28T01:35:57;102267.44;;;2.18;83.90
67109;BME280;54027;50.786;7.058;2023-01-28T01:38:23;102264.56;;;2.12;84.18
67109;BME280;54027;50.786;7.058;2023-01-28T01:40:49;102266.91;;;2.07;84.59
67109;BME280;54027;50.786;7.058;2023-01-28T01:43:17;102273.59;;;2.05;84.29
67109;BME280;54027;50.786;7.058;2023-01-28T01:45:45;102267.91;;;2.11;83.88
67109;BME280;54027;50.786;7.058;2023-01-28T01:48:18;102271.44;;;2.13;83.89
67109;BME280;54027;50.786;7.058;2023-01-28T01:51:04;102261.22;;;2.13;84.24
67109;BME280;54027;50.786;7.058;2023-01-28T01:53:34;102262.06;;;2.13;83.77
67109;BME280;54027;50.786;7.058;2023-01-28T01:56:03;102266.47;;;2.16;84.14
67109;BME280;54027;50.786;7.058;2023-01-28T01:58:34;102257.06;;;2.15;83.74
67109;BME280;54027;50.786;7.058;2023-01-28T02:01:01;102269.09;;;2.17;83.70
67109;BME280;54027;50.786;7.058;2023-01-28T02:03:47;102273.47;;;2.20;84.08
67109;BME280;54027;50.786;7.058;2023-01-28T02:06:16;102274.50;;;2.23;84.10
67109;BME280;54027;50.786;7.058;2023-01-28T02:08:44;102283.09;;;2.25;83.55
67109;BME280;54027;50.786;7.058;2023-01-28T02:11:10;102284.94;;;2.28;83.13
67109;BME280;54027;50.786;7.058;2023-01-28T02:13:42;102285.09;;;2.31;83.42
67109;BME280;54027;50.786;7.058;2023-01-28T02:16:09;102280.78;;;2.30;83.16
67109;BME280;54027;50.786;7.058;2023-01-28T02:18:35;102288.44;;;2.30;82.99
67109;BME280;54027;50.786;7.058;2023-01-28T02:31:52;102287.25;;;2.23;83.59
67109;BME280;54027;50.786;7.058;2023-01-28T02:40:19;102288.19;;;2.25;82.99
67109;BME280;54027;50.786;7.058;2023-01-28T02:42:47;102292.34;;;2.23;83.24
67109;BME280;54027;50.786;7.058;2023-01-28T02:45:20;102284.66;;;2.22;82.74
67109;BME280;54027;50.786;7.058;2023-01-28T02:47:46;102295.38;;;2.16;83.15
67109;BME280;54027;50.786;7.058;2023-01-28T02:50:33;102301.06;;;2.11;83.67
67109;BME280;54027;50.786;7.058;2023-01-28T02:53:19;102304.03;;;2.02;83.91
67109;BME280;54027;50.786;7.058;2023-01-28T03:04:37;102311.78;;;1.88;84.02
67109;BME280;54027;50.786;7.058;2023-01-28T03:07:06;102314.19;;;1.84;84.45
67109;BME280;54027;50.786;7.058;2023-01-28T03:09:34;102321.91;;;1.86;84.45
67109;BME280;54027;50.786;7.058;2023-01-28T03:12:13;102316.56;;;1.81;84.67
67109;BME280;54027;50.786;7.058;2023-01-28T03:15:07;102315.47;;;1.76;84.61
67109;BME280;54027;50.786;7.058;2023-01-28T03:17:59;102326.13;;;1.69;85.16
67109;BME280;54027;50.786;7.058;2023-01-28T03:29:59;102334.50;;;1.67;85.36
67109;BME280;54027;50.786;7.058;2023-01-28T03:32:44;102341.69;;;1.74;85.14
67109;BME280;54027;50.786;7.058;2023-01-28T03:35:32;102333.69;;;1.84;85.23
67109;BME280;54027;50.786;7.058;2023-01-28T03:38:18;102336.41;;;1.87;84.74
67109;BME280;54027;50.786;7.058;2023-01-28T03:40:58;102334.81;;;1.89;84.79
67109;BME280;54027;50.786;7.058;2023-01-28T03:43:30;102340.88;;;1.91;84.81
67109;BME280;54027;50.786;7.058;2023-01-28T03:45:56;102344.19;;;1.90;84.77
67109;BME280;54027;50.786;7.058;2023-01-28T03:48:26;102350.19;;;1.91;84.62
67109;BME280;54027;50.786;7.058;2023-01-28T03:50:54;102338.31;;;1.91;84.48
67109;BME280;54027;50.786;7.058;2023-01-28T03:53:20;102343.97;;;1.85;84.78
67109;BME280;54027;50.786;7.058;2023-01-28T03:55:48;102339.66;;;1.84;84.95
67109;BME280;54027;50.786;7.058;2023-01-28T03:58:14;102336.91;;;1.80;84.81
67109;BME280;54027;50.786;7.058;2023-01-28T04:00:40;102344.44;;;1.78;84.90
67109;BME280;54027;50.786;7.058;2023-01-28T04:03:16;102346.22;;;1.79;85.01
67109;BME280;54027;50.786;7.058;2023-01-28T04:06:00;102352.19;;;1.80;84.68
67109;BME280;54027;50.786;7.058;2023-01-28T04:08:25;102353.91;;;1.81;84.44
67109;BME280;54027;50.786;7.058;2023-01-28T04:10:51;102349.81;;;1.83;84.05
67109;BME280;54027;50.786;7.058;2023-01-28T04:13:16;102351.47;;;1.82;84.17
67109;BME280;54027;50.786;7.058;2023-01-28T04:15:46;102357.44;;;1.83;84.18
67109;BME280;54027;50.786;7.058;2023-01-28T04:18:11;102362.44;;;1.81;84.30
67109;BME280;54027;50.786;7.058;2023-01-28T04:20:37;102356.47;;;1.81;84.17
67109;BME280;54027;50.786;7.058;2023-01-28T04:23:03;102365.72;;;1.79;84.11
67109;BME280;54027;50.786;7.058;2023-01-28T04:25:30;102364.84;;;1.78;84.36
67109;BME280;54027;50.786;7.058;2023-01-28T04:27:55;102360.56;;;1.77;84.51
67109;BME280;54027;50.786;7.058;2023-01-28T04:30:21;102357.13;;;1.77;83.89
67109;BME280;54027;50.786;7.058;2023-01-28T04:32:47;102361.34;;;1.76;84.30
67109;BME280;54027;50.786;7.058;2023-01-28T04:35:14;102363.09;;;1.77;83.97
67109;BME280;54027;50.786;7.058;2023-01-28T04:37:40;102366.44;;;1.76;84.06
67109;BME280;54027;50.786;7.058;2023-01-28T04:40:07;102364.78;;;1.77;84.10
67109;BME280;54027;50.786;7.058;2023-01-28T04:42:32;102359.69;;;1.77;84.43
67109;BME280;54027;50.786;7.058;2023-01-28T04:44:58;102368.13;;;1.76;83.88
67109;BME280;54027;50.786;7.058;2023-01-28T04:47:23;102374.09;;;1.76;83.79
67109;BME280;54027;50.786;7.058;2023-01-28T04:49:48;102373.16;;;1.74;83.94
67109;BME280;54027;50.786;7.058;2023-01-28T04:52:14;102377.34;;;1.74;84.04
67109;BME280;54027;50.786;7.058;2023-01-28T04:54:39;102377.44;;;1.75;83.69
67109;BME280;54027;50.786;7.058;2023-01-28T04:57:05;102377.53;;;1.77;83.90
67109;BME280;54027;50.786;7.058;2023-01-28T04:59:30;102378.16;;;1.73;83.85
67109;BME280;54027;50.786;7.058;2023-01-28T05:01:55;102381.75;;;1.76;83.74
67109;BME280;54027;50.786;7.058;2023-01-28T05:04:21;102377.34;;;1.74;83.42
67109;BME280;54027;50.786;7.058;2023-01-28T05:06:46;102374.00;;;1.75;83.58
67109;BME280;54027;50.786;7.058;2023-01-28T05:09:12;102374.97;;;1.77;83.27
67109;BME280;54027;50.786;7.058;2023-01-28T05:11:37;102368.22;;;1.77;82.93
67109;BME280;54027;50.786;7.058;2023-01-28T05:14:03;102369.22;;;1.81;82.73
67109;BME280;54027;50.786;7.058;2023-01-28T05:16:28;102375.13;;;1.80;82.17
67109;BME280;54027;50.786;7.058;2023-01-28T05:18:53;102369.06;;;1.78;82.44
67109;BME280;54027;50.786;7.058;2023-01-28T05:21:19;102371.69;;;1.79;82.15
67109;BME280;54027;50.786;7.058;2023-01-28T05:23:44;102384.50;;;1.81;81.97
67109;BME280;54027;50.786;7.058;2023-01-28T05:26:10;102373.59;;;1.83;82.19
67109;BME280;54027;50.786;7.058;2023-01-28T05:28:35;102376.09;;;1.82;82.24
67109;BME280;54027;50.786;7.058;2023-01-28T05:31:05;102375.34;;;1.84;81.59
67109;BME280;54027;50.786;7.058;2023-01-28T05:33:31;102372.91;;;1.86;81.61
67109;BME280;54027;50.786;7.058;2023-01-28T05:35:57;102377.84;;;1.83;81.90
67109;BME280;54027;50.786;7.058;2023-01-28T05:38:22;102378.78;;;1.85;81.36
67109;BME280;54027;50.786;7.058;2023-01-28T05:40:48;102371.22;;;1.86;81.13
67109;BME280;54027;50.786;7.058;2023-01-28T05:43:13;102374.47;;;1.84;80.98
67109;BME280;54027;50.786;7.058;2023-01-28T05:45:39;102380.47;;;1.84;81.40
67109;BME280;54027;50.786;7.058;2023-01-28T05:48:04;102369.47;;;1.85;80.96
67109;BME280;54027;50.786;7.058;2023-01-28T05:50:30;102375.47;;;1.86;80.88
67109;BME280;54027;50.786;7.058;2023-01-28T05:52:55;102374.56;;;1.85;80.50
67109;BME280;54027;50.786;7.058;2023-01-28T05:55:22;102388.09;;;1.84;81.03
67109;BME280;54027;50.786;7.058;2023-01-28T05:57:48;102388.19;;;1.86;80.46
67109;BME280;54027;50.786;7.058;2023-01-28T06:00:14;102392.41;;;1.85;80.23
67109;BME280;54027;50.786;7.058;2023-01-28T06:02:40;102390.75;;;1.86;80.57
67109;BME280;54027;50.786;7.058;2023-01-28T06:05:06;102399.25;;;1.86;80.25
67109;BME280;54027;50.786;7.058;2023-01-28T06:07:32;102400.84;;;1.84;80.24
67109;BME280;54027;50.786;7.058;2023-01-28T06:09:57;102390.03;;;1.89;79.93
67109;BME280;54027;50.786;7.058;2023-01-28T06:12:23;102397.41;;;1.84;79.61
67109;BME280;54027;50.786;7.058;2023-01-28T06:14:48;102399.97;;;1.84;80.18
67109;BME280;54027;50.786;7.058;2023-01-28T06:17:14;102399.91;;;1.82;79.80
67109;BME280;54027;50.786;7.058;2023-01-28T06:19:39;102396.53;;;1.83;79.56
67109;BME280;54027;50.786;7.058;2023-01-28T06:22:04;102404.19;;;1.83;79.19
67109;BME280;54027;50.786;7.058;2023-01-28T06:24:30;102405.00;;;1.82;79.72
67109;BME280;54027;50.786;7.058;2023-01-28T06:26:55;102405.78;;;1.81;79.54
67109;BME280;54027;50.786;7.058;2023-01-28T06:29:22;102406.75;;;1.83;79.74
67109;BME280;54027;50.786;7.058;2023-01-28T06:31:47;102416.16;;;1.84;79.83
67109;BME280;54027;50.786;7.058;2023-01-28T06:34:13;102410.97;;;1.83;79.64
67109;BME280;54027;50.786;7.058;2023-01-28T06:36:39;102410.09;;;1.82;79.75
67109;BME280;54027;50.786;7.058;2023-01-28T06:39:05;102410.16;;;1.84;80.33
67109;BME280;54027;50.786;7.058;2023-01-28T06:41:30;102422.13;;;1.85;79.81
67109;BME280;54027;50.786;7.058;2023-01-28T06:43:56;102414.31;;;1.82;80.20
67109;BME280;54027;50.786;7.058;2023-01-28T06:46:21;102410.16;;;1.84;79.71
67109;BME280;54027;50.786;7.058;2023-01-28T06:48:46;102412.81;;;1.85;80.04
67109;BME280;54027;50.786;7.058;2023-01-28T06:51:12;102418.78;;;1.86;79.43
67109;BME280;54027;50.786;7.058;2023-01-28T06:53:37;102417.09;;;1.86;79.58
67109;BME280;54027;50.786;7.058;2023-01-28T06:56:03;102418.78;;;1.86;79.34
67109;BME280;54027;50.786;7.058;2023-01-28T06:58:29;102418.78;;;1.86;79.86
67109;BME280;54027;50.786;7.058;2023-01-28T07:00:54;102416.09;;;1.83;79.84
67109;BME280;54027;50.786;7.058;2023-01-28T07:03:20;102424.59;;;1.83;80.45
67109;BME280;54027;50.786;7.058;2023-01-28T07:05:45;102433.03;;;1.82;79.98
67109;BME280;54027;50.786;7.058;2023-01-28T07:08:10;102426.19;;;1.81;80.71
67109;BME280;54027;50.786;7.058;2023-01-28T07:10:36;102427.00;;;1.80;80.71
67109;BME280;54027;50.786;7.058;2023-01-28T07:13:02;102421.09;;;1.81;80.92
67109;BME280;54027;50.786;7.058;2023-01-28T07:15:27;102426.19;;;1.81;80.35
67109;BME280;54027;50.786;7.058;2023-01-28T07:17:53;102425.41;;;1.82;80.41
67109;BME280;54027;50.786;7.058;2023-01-28T07:20:18;102426.19;;;1.81;80.12
67109;BME280;54027;50.786;7.058;2023-01-28T07:22:45;102421.97;;;1.82;80.16
67109;BME280;54027;50.786;7.058;2023-01-28T07:25:12;102427.84;;;1.81;80.34
67109;BME280;54027;50.786;7.058;2023-01-28T07:27:38;102433.13;;;1.84;80.30
67109;BME280;54027;50.786;7.058;2023-01-28T07:30:04;102420.47;;;1.85;79.03
67109;BME280;54027;50.786;7.058;2023-01-28T07:32:29;102421.41;;;1.88;79.14
67109;BME280;54027;50.786;7.058;2023-01-28T07:34:55;102430.09;;;1.91;79.06
67109;BME280;54027;50.786;7.058;2023-01-28T07:37:20;102427.63;;;1.93;79.18
67109;BME280;54027;50.786;7.058;2023-01-28T07:39:46;102418.41;;;1.95;78.50
67109;BME280;54027;50.786;7.058;2023-01-28T07:42:11;102428.44;;;1.92;78.70
67109;BME280;54027;50.786;7.058;2023-01-28T07:44:37;102435.28;;;1.93;79.39
67109;BME280;54027;50.786;7.058;2023-01-28T07:47:04;102433.69;;;1.95;78.68
67109;BME280;54027;50.786;7.058;2023-01-28T07:49:30;102428.75;;;1.98;78.66
67109;BME280;54027;50.786;7.058;2023-01-28T07:51:57;102424.72;;;2.01;77.38
67109;BME280;54027;50.786;7.058;2023-01-28T07:54:23;102437.34;;;2.00;77.39
67109;BME280;54027;50.786;7.058;2023-01-28T07:56:48;102438.31;;;2.02;77.45
67109;BME280;54027;50.786;7.058;2023-01-28T07:59:14;102432.25;;;2.00;77.70
67109;BME280;54027;50.786;7.058;2023-01-28T08:01:39;102434.03;;;2.01;78.37
67109;BME280;54027;50.786;7.058;2023-01-28T08:04:05;102429.09;;;2.04;77.68
67109;BME280;54027;50.786;7.058;2023-01-28T08:06:30;102428.44;;;2.08;77.15
67109;BME280;54027;50.786;7.058;2023-01-28T08:08:56;102435.28;;;2.09;77.41
67109;BME280;54027;50.786;7.058;2023-01-28T08:11:21;102427.69;;;2.10;77.09
67109;BME280;54027;50.786;7.058;2023-01-28T08:13:48;102430.50;;;2.15;77.05
67109;BME280;54027;50.786;7.058;2023-01-28T08:16:14;102424.78;;;2.19;76.89
67109;BME280;54027;50.786;7.058;2023-01-28T08:18:39;102432.81;;;2.26;76.54
67109;BME280;54027;50.786;7.058;2023-01-28T08:21:05;102422.03;;;2.32;76.54
67109;BME280;54027;50.786;7.058;2023-01-28T08:23:30;102414.56;;;2.35;75.58
67109;BME280;54027;50.786;7.058;2023-01-28T08:25:59;102426.75;;;2.40;75.59
67109;BME280;54027;50.786;7.058;2023-01-28T08:28:25;102423.56;;;2.45;75.20
67109;BME280;54027;50.786;7.058;2023-01-28T08:30:50;102419.38;;;2.47;74.25
67109;BME280;54027;50.786;7.058;2023-01-28T08:33:16;102417.00;;;2.50;74.44
67109;BME280;54027;50.786;7.058;2023-01-28T08:35:42;102431.38;;;2.48;74.55
67109;BME280;54027;50.786;7.058;2023-01-28T08:38:10;102426.16;;;2.46;74.48
67109;BME280;54027;50.786;7.058;2023-01-28T08:40:36;102425.16;;;2.42;74.13
67109;BME280;54027;50.786;7.058;2023-01-28T08:43:02;102432.81;;;2.42;74.51
67109;BME280;54027;50.786;7.058;2023-01-28T08:45:41;102425.94;;;2.41;74.05
67109;BME280;54027;50.786;7.058;2023-01-28T08:48:10;102430.25;;;2.42;74.17
67109;BME280;54027;50.786;7.058;2023-01-28T08:50:38;102427.63;;;2.41;73.49
67109;BME280;54027;50.786;7.058;2023-01-28T08:53:09;102423.56;;;2.45;73.62
67109;BME280;54027;50.786;7.058;2023-01-28T08:55:35;102424.81;;;2.53;74.06
67109;BME280;54027;50.786;7.058;2023-01-28T08:58:02;102413.88;;;2.55;73.23
67109;BME280;54027;50.786;7.058;2023-01-28T09:00:28;102426.56;;;2.54;73.13
67109;BME280;54027;50.786;7.058;2023-01-28T09:02:54;102419.06;;;2.57;72.44
67109;BME280;54027;50.786;7.058;2023-01-28T09:05:20;102421.78;;;2.60;72.42
67109;BME280;54027;50.786;7.058;2023-01-28T09:07:47;102419.84;;;2.56;72.51
67109;BME280;54027;50.786;7.058;2023-01-28T09:10:13;102431.97;;;2.60;72.81
67109;BME280;54027;50.786;7.058;2023-01-28T09:12:38;102412.59;;;2.63;71.62
67109;BME280;54027;50.786;7.058;2023-01-28T09:15:04;102426.22;;;2.64;71.94
67109;BME280;54027;50.786;7.058;2023-01-28T09:17:30;102424.38;;;2.61;71.74
67109;BME280;54027;50.786;7.058;2023-01-28T09:19:56;102433.81;;;2.62;72.63
67109;BME280;54027;50.786;7.058;2023-01-28T09:22:21;102426.31;;;2.65;71.52
67109;BME280;54027;50.786;7.058;2023-01-28T09:24:47;102442.81;;;2.72;72.75
67109;BME280;54027;50.786;7.058;2023-01-28T09:27:12;102417.13;;;2.69;70.87
67109;BME280;54027;50.786;7.058;2023-01-28T09:29:38;102412.44;;;2.60;70.44
67109;BME280;54027;50.786;7.058;2023-01-28T09:32:05;102413.19;;;2.58;70.93
67109;BME280;54027;50.786;7.058;2023-01-28T09:34:31;102426.94;;;2.61;70.72
67109;BME280;54027;50.786;7.058;2023-01-28T09:36:57;102433.09;;;2.65;70.59
67109;BME280;54027;50.786;7.058;2023-01-28T09:39:22;102440.91;;;2.68;70.49
67109;BME280;54027;50.786;7.058;2023-01-28T09:42:14;102444.38;;;2.70;70.88
67109;BME280;54027;50.786;7.058;2023-01-28T09:47:27;102446.47;;;2.61;70.31
67109;BME280;54027;50.786;7.058;2023-01-28T09:49:57;102451.53;;;2.59;70.61
67109;BME280;54027;50.786;7.058;2023-01-28T09:52:33;102447.22;;;2.58;70.30
67109;BME280;54027;50.786;7.058;2023-01-28T09:55:04;102446.56;;;2.62;70.37
67109;BME280;54027;50.786;7.058;2023-01-28T09:57:41;102452.72;;;2.66;70.49
67109;BME280;54027;50.786;7.058;2023-01-28T10:00:15;102443.06;;;2.60;69.45
67109;BME280;54027;50.786;7.058;2023-01-28T10:02:50;102460.22;;;2.63;70.27
67109;BME280;54027;50.786;7.058;2023-01-28T10:10:57;102466.28;;;2.65;69.46
67109;BME280;54027;50.786;7.058;2023-01-28T10:13:51;102459.91;;;2.57;69.91
67109;BME280;54027;50.786;7.058;2023-01-28T10:16:44;102487.09;;;2.56;70.07
67109;BME280;54027;50.786;7.058;2023-01-28T10:19:26;102477.78;;;2.57;69.58
67109;BME280;54027;50.786;7.058;2023-01-28T10:22:03;102474.50;;;2.59;69.91
67109;BME280;54027;50.786;7.058;2023-01-28T10:24:47;102472.81;;;2.60;69.65
67109;BME280;54027;50.786;7.058;2023-01-28T10:27:22;102470.34;;;2.61;69.74
67109;BME280;54027;50.786;7.058;2023-01-28T10:29:49;102456.78;;;2.62;69.38
67109;BME280;54027;50.786;7.058;2023-01-28T10:32:23;102466.13;;;2.62;69.71
67109;BME280;54027;50.786;7.058;2023-01-28T10:34:52;102483.66;;;2.72;70.49
67109;BME280;54027;50.786;7.058;2023-01-28T10:37:18;102474.69;;;2.80;70.22
67109;BME280;54027;50.786;7.058;2023-01-28T10:39:45;102458.19;;;2.73;69.26
67109;BME280;54027;50.786;7.058;2023-01-28T10:42:19;102454.53;;;2.68;69.52
67109;BME280;54027;50.786;7.058;2023-01-28T10:44:48;102474.88;;;2.67;70.40
67109;BME280;54027;50.786;7.058;2023-01-28T10:47:18;102479.03;;;2.65;70.37
67109;BME280;54027;50.786;7.058;2023-01-28T10:49:52;102479.44;;;2.72;70.29
67109;BME280;54027;50.786;7.058;2023-01-28T10:52:18;102457.16;;;2.70;68.57
67109;BME280;54027;50.786;7.058;2023-01-28T10:54:43;102435.63;;;2.65;68.31
67109;BME280;54027;50.786;7.058;2023-01-28T10:57:12;102434.03;;;2.67;68.25
67109;BME280;54027;50.786;7.058;2023-01-28T10:59:38;102409.38;;;2.67;67.02
67109;BME280;54027;50.786;7.058;2023-01-28T11:02:27;102421.31;;;2.84;67.18
67109;BME280;54027;50.786;7.058;2023-01-28T11:07:30;102414.81;;;2.91;66.88
67109;BME280;54027;50.786;7.058;2023-01-28T11:09:55;102406.81;;;3.01;66.76
67109;BME280;54027;50.786;7.058;2023-01-28T11:12:24;102419.47;;;2.99;68.00
67109;BME280;54027;50.786;7.058;2023-01-28T11:14:59;102420.06;;;3.12;67.01
67109;BME280;54027;50.786;7.058;2023-01-28T11:17:27;102408.63;;;3.21;66.56
67109;BME280;54027;50.786;7.058;2023-01-28T11:19:55;102390.00;;;3.06;66.04
67109;BME280;54027;50.786;7.058;2023-01-28T11:22:38;102400.38;;;3.09;66.27
67109;BME280;54027;50.786;7.058;2023-01-28T11:27:45;102382.94;;;3.18;65.46
67109;BME280;54027;50.786;7.058;2023-01-28T11:30:22;102389.22;;;3.07;66.06
67109;BME280;54027;50.786;7.058;2023-01-28T11:35:32;102382.88;;;3.17;65.44
67109;BME280;54027;50.786;7.058;2023-01-28T11:37:58;102342.44;;;3.26;64.39
67109;BME280;54027;50.786;7.058;2023-01-28T11:40:24;102340.56;;;3.23;63.68
67109;BME280;54027;50.786;7.058;2023-01-28T11:42:51;102348.25;;;3.23;63.96
67109;BME280;54027;50.786;7.058;2023-01-28T11:45:21;102368.03;;;3.27;65.01
67109;BME280;54027;50.786;7.058;2023-01-28T11:50:48;102376.16;;;3.01;64.35
67109;BME280;54027;50.786;7.058;2023-01-28T11:53:45;102369.72;;;3.09;64.49
67109;BME280;54027;50.786;7.058;2023-01-28T12:02:38;102398.91;;;2.96;64.89
67109;BME280;54027;50.786;7.058;2023-01-28T12:08:23;102363.81;;;2.92;64.30
67109;BME280;54027;50.786;7.058;2023-01-28T12:16:21;102349.88;;;2.86;63.27
67109;BME280;54027;50.786;7.058;2023-01-28T12:19:02;102358.72;;;2.92;64.07
67109;BME280;54027;50.786;7.058;2023-01-28T12:32:07;102371.50;;;2.92;64.70
67109;BME280;54027;50.786;7.058;2023-01-28T12:34:42;102379.16;;;2.92;64.68
67109;BME280;54027;50.786;7.058;2023-01-28T12:37:38;102394.53;;;2.94;64.79
67109;BME280;54027;50.786;7.058;2023-01-28T12:40:02;102374.25;;;2.97;65.17
67109;BME280;54027;50.786;7.058;2023-01-28T12:42:36;102374.03;;;3.10;64.35
67109;BME280;54027;50.786;7.058;2023-01-28T12:45:12;102363.00;;;3.11;63.93
67109;BME280;54027;50.786;7.058;2023-01-28T12:47:45;102365.44;;;3.08;63.81
67109;BME280;54027;50.786;7.058;2023-01-28T12:50:35;102343.59;;;2.97;64.11
67109;BME280;54027;50.786;7.058;2023-01-28T12:56:02;102365.34;;;3.07;64.03
67109;BME280;54027;50.786;7.058;2023-01-28T12:58:46;102359.06;;;3.00;64.02
67109;BME280;54027;50.786;7.058;2023-01-28T13:01:18;102358.88;;;2.95;64.19
67109;BME280;54027;50.786;7.058;2023-01-28T13:03:57;102372.38;;;2.93;64.20
67109;BME280;54027;50.786;7.058;2023-01-28T13:06:49;102359.75;;;2.78;63.31
67109;BME280;54027;50.786;7.058;2023-01-28T13:09:17;102374.81;;;2.74;63.86
67109;BME280;54027;50.786;7.058;2023-01-28T13:11:45;102354.41;;;2.74;63.93
67109;BME280;54027;50.786;7.058;2023-01-28T13:14:13;102379.50;;;2.82;65.15
67109;BME280;54027;50.786;7.058;2023-01-28T13:16:39;102365.19;;;2.86;64.33
67109;BME280;54027;50.786;7.058;2023-01-28T13:19:08;102331.28;;;2.88;63.82
67109;BME280;54027;50.786;7.058;2023-01-28T13:21:46;102344.19;;;2.91;63.96
67109;BME280;54027;50.786;7.058;2023-01-28T13:29:19;102340.84;;;3.10;64.09
67109;BME280;54027;50.786;7.058;2023-01-28T13:31:47;102324.56;;;3.08;63.33
67109;BME280;54027;50.786;7.058;2023-01-28T13:34:30;102313.38;;;3.06;62.93
67109;BME280;54027;50.786;7.058;2023-01-28T13:37:43;102297.41;;;3.10;62.13
67109;BME280;54027;50.786;7.058;2023-01-28T13:39:49;102275.47;;;2.96;61.73
67109;BME280;54027;50.786;7.058;2023-01-28T13:42:27;102279.41;;;2.89;61.56
67109;BME280;54027;50.786;7.058;2023-01-28T13:44:53;102275.69;;;2.83;61.38
67109;BME280;54027;50.786;7.058;2023-01-28T13:47:24;102285.69;;;2.78;61.82
67109;BME280;54027;50.786;7.058;2023-01-28T13:52:28;102272.50;;;2.69;62.62
67109;BME280;54027;50.786;7.058;2023-01-28T13:54:59;102257.59;;;2.61;62.61
67109;BME280;54027;50.786;7.058;2023-01-28T14:16:39;102282.81;;;3.08;62.07
67109;BME280;54027;50.786;7.058;2023-01-28T14:19:11;102286.50;;;3.14;61.61
67109;BME280;54027;50.786;7.058;2023-01-28T14:21:37;102270.03;;;3.08;61.59
67109;BME280;54027;50.786;7.058;2023-01-28T14:24:03;102276.69;;;3.04;61.69
67109;BME280;54027;50.786;7.058;2023-01-28T14:26:41;102270.78;;;3.05;61.34
67109;BME280;54027;50.786;7.058;2023-01-28T14:31:50;102276.03;;;3.08;61.17
67109;BME280;54027;50.786;7.058;2023-01-28T14:34:31;102317.19;;;2.96;62.90
67109;BME280;54027;50.786;7.058;2023-01-28T14:37:18;102315.22;;;2.91;63.08
67109;BME280;54027;50.786;7.058;2023-01-28T14:39:48;102316.53;;;2.83;61.59
67109;BME280;54027;50.786;7.058;2023-01-28T14:42:29;102331.84;;;2.83;63.21
67109;BME280;54027;50.786;7.058;2023-01-28T14:56:21;102354.56;;;2.43;63.33
67109;BME280;54027;50.786;7.058;2023-01-28T14:58:56;102375.84;;;2.43;64.25
67109;BME280;54027;50.786;7.058;2023-01-28T15:01:29;102360.34;;;2.39;63.48
67109;BME280;54027;50.786;7.058;2023-01-28T15:03:55;102375.34;;;2.33;63.76
67109;BME280;54027;50.786;7.058;2023-01-28T15:06:33;102372.38;;;2.25;63.84
67109;BME280;54027;50.786;7.058;2023-01-28T15:09:07;102373.81;;;2.20;64.53
67109;BME280;54027;50.786;7.058;2023-01-28T15:11:35;102367.69;;;2.17;64.49
67109;BME280;54027;50.786;7.058;2023-01-28T15:14:03;102372.47;;;2.11;64.89